createdAt,value
2023-05-19T00:00:33.525Z,83.63
2023-05-19T00:01:33.426Z,83.53
2023-05-19T00:02:33.634Z,83.53
2023-05-19T00:03:33.612Z,83.42
2023-05-19T00:04:33.864Z,83.32
2023-05-19T00:05:33.833Z,83.12
2023-05-19T00:06:33.872Z,83.01
2023-05-19T00:07:33.920Z,83.01
2023-05-19T00:08:33.999Z,82.81
2023-05-19T00:09:34.091Z,82.95
2023-05-19T00:10:34.362Z,83.26
2023-05-19T00:11:34.252Z,83.36
2023-05-19T00:12:34.317Z,83.46
2023-05-19T00:13:34.389Z,83.77
2023-05-19T00:14:34.429Z,84.08
2023-05-19T00:15:34.548Z,84.49
2023-05-19T00:16:34.675Z,84.39
2023-05-19T00:17:34.724Z,84.39
2023-05-19T00:18:34.757Z,84.28
2023-05-19T00:19:34.845Z,84.18
2023-05-19T00:20:34.949Z,84.49
2023-05-19T00:21:35.027Z,84.80
2023-05-19T00:22:35.077Z,85.00
2023-05-19T00:23:35.166Z,85.00
2023-05-19T00:24:35.219Z,85.00
2023-05-19T00:25:35.309Z,84.90
2023-05-19T00:26:35.421Z,85.00
2023-05-19T00:27:35.467Z,84.84
2023-05-19T00:28:35.551Z,84.74
2023-05-19T00:29:35.652Z,84.84
2023-05-19T00:30:35.724Z,85.04
2023-05-19T00:31:35.842Z,85.04
2023-05-19T00:32:35.880Z,85.04
2023-05-19T00:33:35.950Z,85.04
2023-05-19T00:34:36.013Z,85.25
2023-05-19T00:35:36.106Z,85.46
2023-05-19T00:36:36.208Z,85.46
2023-05-19T00:37:36.261Z,85.46
2023-05-19T00:38:36.335Z,85.39
2023-05-19T00:39:36.430Z,85.28
2023-05-19T00:40:36.515Z,85.08
2023-05-19T00:41:36.629Z,84.98
2023-05-19T00:42:36.683Z,85.28
2023-05-19T00:43:36.761Z,85.60
2023-05-19T00:44:36.839Z,85.90
2023-05-19T00:45:36.932Z,85.70
2023-05-19T00:46:37.057Z,85.74
2023-05-19T00:47:37.147Z,85.84
2023-05-19T00:48:37.170Z,86.05
2023-05-19T00:49:37.268Z,85.94
2023-05-19T00:50:37.346Z,85.94
2023-05-19T00:51:37.478Z,86.05
2023-05-19T00:52:37.522Z,85.94
2023-05-19T00:53:37.609Z,85.74
2023-05-19T00:54:37.687Z,85.53
2023-05-19T00:55:37.779Z,85.33
2023-05-19T00:56:37.902Z,85.33
2023-05-19T00:57:37.960Z,85.22
2023-05-19T00:58:38.018Z,85.12
2023-05-19T00:59:38.108Z,85.02
2023-05-19T01:00:38.258Z,85.02
2023-05-19T01:01:38.324Z,84.95
2023-05-19T01:02:38.415Z,84.91
2023-05-19T01:03:38.507Z,85.06
2023-05-19T01:04:38.507Z,85.06
2023-05-19T01:05:38.588Z,85.16
2023-05-19T01:06:38.695Z,84.95
2023-05-19T01:07:38.770Z,84.85
2023-05-19T01:08:38.853Z,84.85
2023-05-19T01:09:38.939Z,84.95
2023-05-19T01:10:39.054Z,85.06
2023-05-19T01:11:39.134Z,84.95
2023-05-19T01:12:39.208Z,84.75
2023-05-19T01:13:41.828Z,84.75
2023-05-19T01:14:39.333Z,84.75
2023-05-19T01:15:39.405Z,85.06
2023-05-19T01:16:39.611Z,85.16
2023-05-19T01:17:39.591Z,85.26
2023-05-19T01:18:39.677Z,85.36
2023-05-19T01:19:39.733Z,85.47
2023-05-19T01:20:39.827Z,85.68
2023-05-19T01:21:39.922Z,85.68
2023-05-19T01:22:39.977Z,85.57
2023-05-19T01:23:40.072Z,85.47
2023-05-19T01:24:40.154Z,85.26
2023-05-19T01:25:40.231Z,85.06
2023-05-19T01:26:40.319Z,84.95
2023-05-19T01:27:40.416Z,85.36
2023-05-19T01:28:40.488Z,85.57
2023-05-19T01:29:40.579Z,85.68
2023-05-19T01:30:40.666Z,85.68
2023-05-19T01:31:40.793Z,85.57
2023-05-19T01:32:40.863Z,85.36
2023-05-19T01:33:40.916Z,85.16
2023-05-19T01:34:40.966Z,84.95
2023-05-19T01:35:41.062Z,84.85
2023-05-19T01:36:41.160Z,84.64
2023-05-19T01:37:41.232Z,84.54
2023-05-19T01:38:41.313Z,84.54
2023-05-19T01:39:41.432Z,84.75
2023-05-19T01:40:41.533Z,84.79
2023-05-19T01:41:41.589Z,84.89
2023-05-19T01:42:41.649Z,85.61
2023-05-19T01:43:41.733Z,85.71
2023-05-19T01:44:41.820Z,85.82
2023-05-19T01:45:41.943Z,85.92
2023-05-19T01:46:42.009Z,86.02
2023-05-19T01:47:42.106Z,85.92
2023-05-19T01:48:42.141Z,86.33
2023-05-19T01:49:42.243Z,86.43
2023-05-19T01:50:42.303Z,86.33
2023-05-19T01:51:42.389Z,86.33
2023-05-19T01:52:42.447Z,86.23
2023-05-19T01:53:42.516Z,86.23
2023-05-19T01:54:42.589Z,86.33
2023-05-19T01:55:42.674Z,86.43
2023-05-19T01:56:42.736Z,86.54
2023-05-19T01:57:42.814Z,86.47
2023-05-19T01:58:42.877Z,86.16
2023-05-19T01:59:42.954Z,86.06
2023-05-19T02:00:43.027Z,86.06
2023-05-19T02:01:43.253Z,86.37
2023-05-19T02:02:43.251Z,86.37
2023-05-19T02:03:43.275Z,86.47
2023-05-19T02:04:43.399Z,86.68
2023-05-19T02:05:43.429Z,86.93
2023-05-19T02:06:43.516Z,87.19
2023-05-19T02:07:43.585Z,87.13
2023-05-19T02:08:43.646Z,87.24
2023-05-19T02:09:43.744Z,87.34
2023-05-19T02:10:43.826Z,87.54
2023-05-19T02:11:43.949Z,87.51
2023-05-19T02:12:43.984Z,87.51
2023-05-19T02:13:44.079Z,87.40
2023-05-19T02:14:44.175Z,87.30
2023-05-19T02:15:44.270Z,87.24
2023-05-19T02:16:44.347Z,87.13
2023-05-19T02:17:44.489Z,87.03
2023-05-19T02:18:44.544Z,87.03
2023-05-19T02:19:44.562Z,86.93
2023-05-19T02:20:44.653Z,87.07
2023-05-19T02:21:44.777Z,87.17
2023-05-19T02:22:44.828Z,87.75
2023-05-19T02:23:44.935Z,87.85
2023-05-19T02:24:44.982Z,87.96
2023-05-19T02:25:45.087Z,87.96
2023-05-19T02:26:45.158Z,87.96
2023-05-19T02:27:45.221Z,88.17
2023-05-19T02:28:45.290Z,88.10
2023-05-19T02:29:45.388Z,88.10
2023-05-19T02:30:45.476Z,88.31
2023-05-19T02:31:45.695Z,88.31
2023-05-19T02:32:45.658Z,88.41
2023-05-19T02:33:45.721Z,88.41
2023-05-19T02:34:45.801Z,88.31
2023-05-19T02:35:45.878Z,88.41
2023-05-19T02:36:46.343Z,88.41
2023-05-19T02:37:46.019Z,88.51
2023-05-19T02:38:46.071Z,88.41
2023-05-19T02:39:46.184Z,88.26
2023-05-19T02:40:46.233Z,88.10
2023-05-19T02:41:46.311Z,88.10
2023-05-19T02:42:46.383Z,88.20
2023-05-19T02:43:46.494Z,88.20
2023-05-19T02:44:46.539Z,88.10
2023-05-19T02:45:46.641Z,88.20
2023-05-19T02:46:46.999Z,88.31
2023-05-19T02:47:46.900Z,88.20
2023-05-19T02:48:46.880Z,88.20
2023-05-19T02:49:46.966Z,88.31
2023-05-19T02:50:47.045Z,88.10
2023-05-19T02:51:47.141Z,87.99
2023-05-19T02:52:47.206Z,88.04
2023-05-19T02:53:47.294Z,88.14
2023-05-19T02:54:47.346Z,88.14
2023-05-19T02:55:47.432Z,88.24
2023-05-19T02:56:47.519Z,88.35
2023-05-19T02:57:47.634Z,88.24
2023-05-19T02:58:47.692Z,88.14
2023-05-19T02:59:47.795Z,88.14
2023-05-19T03:00:47.883Z,88.04
2023-05-19T03:01:48.006Z,88.04
2023-05-19T03:02:48.085Z,88.04
2023-05-19T03:03:48.220Z,87.93
2023-05-19T03:04:48.203Z,87.93
2023-05-19T03:05:48.304Z,87.83
2023-05-19T03:06:48.370Z,87.83
2023-05-19T03:07:48.483Z,87.83
2023-05-19T03:08:48.521Z,87.93
2023-05-19T03:09:48.593Z,87.98
2023-05-19T03:10:48.673Z,87.98
2023-05-19T03:11:48.783Z,87.98
2023-05-19T03:12:48.890Z,88.18
2023-05-19T03:13:48.946Z,88.18
2023-05-19T03:14:49.037Z,88.18
2023-05-19T03:15:49.186Z,88.39
2023-05-19T03:16:49.276Z,88.49
2023-05-19T03:17:49.419Z,88.49
2023-05-19T03:18:49.365Z,88.39
2023-05-19T03:19:49.450Z,88.39
2023-05-19T03:20:49.512Z,88.39
2023-05-19T03:21:49.595Z,88.29
2023-05-19T03:22:49.680Z,88.18
2023-05-19T03:23:49.755Z,87.98
2023-05-19T03:24:49.828Z,87.87
2023-05-19T03:25:49.915Z,88.18
2023-05-19T03:26:49.994Z,88.29
2023-05-19T03:27:50.113Z,88.29
2023-05-19T03:28:50.173Z,88.39
2023-05-19T03:29:50.268Z,88.39
2023-05-19T03:30:50.321Z,88.29
2023-05-19T03:31:50.394Z,88.29
2023-05-19T03:32:50.595Z,88.22
2023-05-19T03:33:50.546Z,88.18
2023-05-19T03:34:50.610Z,88.22
2023-05-19T03:35:50.700Z,88.02
2023-05-19T03:36:50.776Z,88.02
2023-05-19T03:37:50.932Z,87.92
2023-05-19T03:38:50.944Z,87.71
2023-05-19T03:39:51.019Z,87.60
2023-05-19T03:40:51.120Z,87.50
2023-05-19T03:41:51.214Z,87.40
2023-05-19T03:42:51.276Z,87.19
2023-05-19T03:43:51.371Z,86.98
2023-05-19T03:44:51.407Z,86.88
2023-05-19T03:45:51.581Z,86.88
2023-05-19T03:46:51.564Z,86.88
2023-05-19T03:47:51.726Z,86.98
2023-05-19T03:48:51.727Z,87.19
2023-05-19T03:49:51.804Z,87.60
2023-05-19T03:50:51.865Z,87.60
2023-05-19T03:51:51.952Z,87.46
2023-05-19T03:52:52.026Z,87.26
2023-05-19T03:53:52.091Z,87.15
2023-05-19T03:54:52.167Z,86.84
2023-05-19T03:55:52.251Z,86.63
2023-05-19T03:56:52.334Z,86.53
2023-05-19T03:57:52.442Z,86.43
2023-05-19T03:58:52.475Z,86.32
2023-05-19T03:59:52.548Z,86.22
2023-05-19T04:00:52.604Z,86.02
2023-05-19T04:01:52.742Z,86.05
2023-05-19T04:02:52.826Z,86.16
2023-05-19T04:03:52.846Z,86.26
2023-05-19T04:04:53.010Z,86.68
2023-05-19T04:05:53.022Z,86.78
2023-05-19T04:06:53.092Z,86.78
2023-05-19T04:07:53.189Z,86.88
2023-05-19T04:08:53.267Z,87.08
2023-05-19T04:09:53.354Z,87.05
2023-05-19T04:10:53.441Z,87.05
2023-05-19T04:11:53.544Z,87.05
2023-05-19T04:12:53.627Z,87.15
2023-05-19T04:13:53.720Z,87.15
2023-05-19T04:14:53.794Z,87.15
2023-05-19T04:15:53.922Z,87.15
2023-05-19T04:16:53.964Z,87.19
2023-05-19T04:17:54.135Z,87.15
2023-05-19T04:18:54.128Z,87.35
2023-05-19T04:19:54.224Z,87.56
2023-05-19T04:20:54.282Z,87.56
2023-05-19T04:21:54.353Z,87.66
2023-05-19T04:22:54.473Z,87.77
2023-05-19T04:23:54.513Z,87.87
2023-05-19T04:24:54.596Z,87.77
2023-05-19T04:25:54.669Z,87.66
2023-05-19T04:26:54.743Z,87.52
2023-05-19T04:27:54.860Z,87.52
2023-05-19T04:28:54.928Z,87.42
2023-05-19T04:29:55.020Z,87.32
2023-05-19T04:30:55.122Z,87.21
2023-05-19T04:31:55.187Z,87.21
2023-05-19T04:32:55.319Z,87.32
2023-05-19T04:33:55.367Z,87.21
2023-05-19T04:34:55.430Z,87.11
2023-05-19T04:35:55.509Z,87.11
2023-05-19T04:36:55.592Z,87.01
2023-05-19T04:37:55.716Z,87.11
2023-05-19T04:38:55.749Z,87.11
2023-05-19T04:39:55.826Z,87.11
2023-05-19T04:40:55.893Z,87.11
2023-05-19T04:41:55.973Z,87.11
2023-05-19T04:42:56.088Z,87.21
2023-05-19T04:43:56.158Z,87.21
2023-05-19T04:44:56.223Z,87.21
2023-05-19T04:45:56.304Z,87.17
2023-05-19T04:46:56.383Z,87.17
2023-05-19T04:47:56.541Z,87.17
2023-05-19T04:48:56.510Z,87.27
2023-05-19T04:49:56.613Z,87.17
2023-05-19T04:50:56.670Z,87.17
2023-05-19T04:51:56.741Z,87.27
2023-05-19T04:52:56.835Z,87.38
2023-05-19T04:53:56.896Z,87.48
2023-05-19T04:54:56.954Z,87.59
2023-05-19T04:55:57.063Z,87.69
2023-05-19T04:56:57.114Z,87.65
2023-05-19T04:57:57.208Z,87.65
2023-05-19T04:58:57.289Z,87.44
2023-05-19T04:59:57.382Z,87.34
2023-05-19T05:00:57.451Z,87.09
2023-05-19T05:01:57.576Z,86.88
2023-05-19T05:02:57.853Z,86.88
2023-05-19T05:03:57.748Z,86.37
2023-05-19T05:04:57.750Z,86.06
2023-05-19T05:05:57.828Z,85.96
2023-05-19T05:06:57.889Z,85.86
2023-05-19T05:07:57.976Z,85.86
2023-05-19T05:08:58.038Z,85.86
2023-05-19T05:09:58.146Z,85.71
2023-05-19T05:10:58.208Z,85.71
2023-05-19T05:11:58.326Z,85.41
2023-05-19T05:12:58.404Z,85.30
2023-05-19T05:13:58.582Z,85.10
2023-05-19T05:14:58.523Z,84.99
2023-05-19T05:15:58.634Z,84.79
2023-05-19T05:16:58.689Z,84.89
2023-05-19T05:17:58.870Z,84.89
2023-05-19T05:18:58.944Z,84.85
2023-05-19T05:19:58.919Z,84.85
2023-05-19T05:20:59.002Z,84.85
2023-05-19T05:21:59.078Z,85.06
2023-05-19T05:22:59.177Z,85.06
2023-05-19T05:23:59.217Z,85.06
2023-05-19T05:24:59.320Z,84.95
2023-05-19T05:25:59.404Z,84.95
2023-05-19T05:26:59.508Z,84.91
2023-05-19T05:27:59.594Z,84.81
2023-05-19T05:28:59.672Z,84.71
2023-05-19T05:29:59.753Z,84.71
2023-05-19T05:30:59.862Z,84.61
2023-05-19T05:32:00.000Z,84.61
2023-05-19T05:33:00.151Z,84.20
2023-05-19T05:34:00.116Z,84.20
2023-05-19T05:35:00.248Z,84.16
2023-05-19T05:36:00.277Z,84.36
2023-05-19T05:37:00.360Z,84.67
2023-05-19T05:38:00.469Z,84.67
2023-05-19T05:39:00.522Z,84.67
2023-05-19T05:40:00.582Z,84.42
2023-05-19T05:41:00.668Z,83.87
2023-05-19T05:42:00.757Z,83.18
2023-05-19T05:43:00.882Z,82.36
2023-05-19T05:44:00.933Z,81.50
2023-05-19T05:45:01.019Z,80.95
2023-05-19T05:46:01.132Z,80.23
2023-05-19T05:47:01.203Z,79.85
2023-05-19T05:48:01.444Z,78.28
2023-05-19T05:49:01.337Z,78.00
2023-05-19T05:50:01.383Z,76.50
2023-05-19T05:51:01.489Z,75.44
2023-05-19T05:52:06.166Z,75.10
2023-05-19T05:53:01.664Z,73.74
2023-05-19T05:54:01.705Z,73.16
2023-05-19T05:55:01.824Z,71.39
2023-05-19T05:56:01.859Z,70.92
2023-05-19T05:57:01.939Z,69.64
2023-05-19T05:58:02.015Z,68.35
2023-05-19T05:59:02.084Z,65.65
2023-05-19T06:00:02.124Z,64.23
2023-05-19T06:01:02.210Z,65.52
2023-05-19T06:02:02.368Z,64.07
2023-05-19T06:03:02.430Z,63.60
2023-05-19T06:04:02.405Z,61.55
2023-05-19T06:05:02.594Z,61.44
2023-05-19T06:06:02.552Z,62.02
2023-05-19T06:07:02.647Z,62.07
2023-05-19T06:08:02.715Z,60.02
2023-05-19T06:09:02.806Z,59.76
2023-05-19T06:10:02.840Z,58.89
2023-05-19T06:11:02.938Z,56.85
2023-05-19T06:12:03.007Z,57.32
2023-05-19T06:13:03.128Z,55.89
2023-05-19T06:14:03.159Z,55.76
2023-05-19T06:15:03.263Z,54.73
2023-05-19T06:16:03.361Z,54.23
2023-05-19T06:17:03.407Z,52.80
2023-05-19T06:18:03.642Z,51.46
2023-05-19T06:19:03.675Z,51.61
2023-05-19T06:20:03.669Z,50.38
2023-05-19T06:21:03.802Z,50.36
2023-05-19T06:22:03.859Z,49.46
2023-05-19T06:23:03.952Z,49.46
2023-05-19T06:24:04.012Z,49.23
2023-05-19T06:25:04.131Z,48.75
2023-05-19T06:26:04.180Z,50.04
2023-05-19T06:27:04.279Z,50.89
2023-05-19T06:28:04.393Z,51.19
2023-05-19T06:29:04.462Z,51.61
2023-05-19T06:30:04.499Z,51.59
2023-05-19T06:31:04.628Z,50.63
2023-05-19T06:32:04.644Z,49.58
2023-05-19T06:33:04.791Z,48.26
2023-05-19T06:34:04.799Z,47.52
2023-05-19T06:35:04.910Z,47.11
2023-05-19T06:36:04.955Z,46.50
2023-05-19T06:37:05.048Z,46.00
2023-05-19T06:38:05.126Z,45.59
2023-05-19T06:39:05.183Z,46.00
2023-05-19T06:40:05.242Z,46.30
2023-05-19T06:41:05.336Z,46.51
2023-05-19T06:42:05.421Z,46.19
2023-05-19T06:43:05.566Z,45.65
2023-05-19T06:44:05.679Z,45.13
2023-05-19T06:45:05.708Z,44.38
2023-05-19T06:46:05.724Z,43.97
2023-05-19T06:47:06.189Z,43.37
2023-05-19T06:48:05.973Z,44.01
2023-05-19T06:49:05.986Z,44.69
2023-05-19T06:50:06.094Z,44.07
2023-05-19T06:51:06.155Z,43.55
2023-05-19T06:52:06.209Z,43.15
2023-05-19T06:53:06.307Z,42.63
2023-05-19T06:54:06.382Z,42.39
2023-05-19T06:55:06.435Z,41.95
2023-05-19T06:56:06.503Z,40.72
2023-05-19T06:57:06.582Z,39.92
2023-05-19T06:58:06.702Z,41.38
2023-05-19T06:59:06.770Z,41.47
2023-05-19T07:00:06.820Z,41.28
2023-05-19T07:01:06.929Z,41.06
2023-05-19T07:02:07.062Z,39.84
2023-05-19T07:03:07.151Z,40.78
2023-05-19T07:04:07.314Z,41.17
2023-05-19T07:05:07.223Z,41.06
2023-05-19T07:06:08.362Z,40.05
2023-05-19T07:07:07.401Z,39.75
2023-05-19T07:08:07.493Z,40.24
2023-05-19T07:09:07.562Z,39.97
2023-05-19T07:10:07.672Z,40.36
2023-05-19T07:11:07.750Z,39.63
2023-05-19T07:12:07.852Z,39.92
2023-05-19T07:13:07.982Z,39.83
2023-05-19T07:14:08.026Z,38.90
2023-05-19T07:15:08.123Z,38.36
2023-05-19T07:16:08.234Z,37.27
2023-05-19T07:17:08.302Z,37.65
2023-05-19T07:18:08.468Z,37.35
2023-05-19T07:19:08.576Z,38.38
2023-05-19T07:20:08.598Z,37.95
2023-05-19T07:21:08.684Z,37.26
2023-05-19T07:22:08.754Z,37.13
2023-05-19T07:23:08.872Z,36.82
2023-05-19T07:24:08.938Z,36.79
2023-05-19T07:25:09.033Z,36.19
2023-05-19T07:26:09.104Z,36.27
2023-05-19T07:27:09.180Z,36.27
2023-05-19T07:28:09.300Z,36.37
2023-05-19T07:29:09.373Z,35.05
2023-05-19T07:30:09.417Z,34.88
2023-05-19T07:31:09.491Z,34.66
2023-05-19T07:32:09.674Z,34.46
2023-05-19T07:33:09.726Z,34.23
2023-05-19T07:34:09.725Z,33.13
2023-05-19T07:35:09.795Z,33.33
2023-05-19T07:36:09.855Z,32.92
2023-05-19T07:37:09.971Z,33.41
2023-05-19T07:38:10.045Z,32.72
2023-05-19T07:39:10.159Z,33.61
2023-05-19T07:40:10.229Z,33.91
2023-05-19T07:41:10.312Z,34.10
2023-05-19T07:42:10.408Z,34.33
2023-05-19T07:43:10.502Z,34.01
2023-05-19T07:44:10.575Z,33.98
2023-05-19T07:45:10.650Z,33.77
2023-05-19T07:46:10.797Z,33.41
2023-05-19T07:47:10.810Z,34.00
2023-05-19T07:48:10.910Z,34.20
2023-05-19T07:49:10.937Z,33.51
2023-05-19T07:50:10.993Z,34.22
2023-05-19T07:51:11.069Z,33.22
2023-05-19T07:52:11.145Z,33.20
2023-05-19T07:53:11.266Z,33.10
2023-05-19T07:54:11.318Z,33.03
2023-05-19T07:55:11.391Z,32.92
2023-05-19T07:56:11.466Z,32.51
2023-05-19T07:57:11.557Z,32.20
2023-05-19T07:58:11.663Z,32.00
2023-05-19T07:59:11.773Z,31.51
2023-05-19T08:00:11.823Z,31.93
2023-05-19T08:01:11.894Z,31.60
2023-05-19T08:02:11.998Z,31.70
2023-05-19T08:03:12.193Z,31.18
2023-05-19T08:04:13.077Z,30.56
2023-05-19T08:05:12.183Z,30.59
2023-05-19T08:06:12.245Z,31.09
2023-05-19T08:07:12.340Z,31.62
2023-05-19T08:08:12.429Z,32.95
2023-05-19T08:09:12.466Z,32.42
2023-05-19T08:10:12.556Z,31.92
2023-05-19T08:11:12.650Z,32.31
2023-05-19T08:12:12.742Z,31.79
2023-05-19T08:13:12.863Z,31.38
2023-05-19T08:14:12.895Z,30.88
2023-05-19T08:15:12.990Z,31.16
2023-05-19T08:16:13.126Z,31.09
2023-05-19T08:17:13.136Z,30.98
2023-05-19T08:18:13.301Z,31.07
2023-05-19T08:19:13.442Z,31.26
2023-05-19T08:20:13.377Z,31.85
2023-05-19T08:21:13.479Z,30.87
2023-05-19T08:22:13.563Z,29.59
2023-05-19T08:23:13.682Z,29.49
2023-05-19T08:24:13.717Z,30.17
2023-05-19T08:25:13.871Z,29.75
2023-05-19T08:26:13.892Z,29.87
2023-05-19T08:27:13.988Z,31.59
2023-05-19T08:28:14.099Z,31.49
2023-05-19T08:29:14.157Z,31.11
2023-05-19T08:30:14.256Z,31.59
2023-05-19T08:31:14.348Z,30.79
2023-05-19T08:32:14.375Z,30.59
2023-05-19T08:33:14.517Z,29.97
2023-05-19T08:34:14.546Z,29.86
2023-05-19T08:35:14.643Z,29.64
2023-05-19T08:36:14.698Z,28.83
2023-05-19T08:37:14.797Z,29.63
2023-05-19T08:38:14.867Z,29.22
2023-05-19T08:39:14.923Z,28.61
2023-05-19T08:40:15.018Z,27.44
2023-05-19T08:41:15.113Z,27.95
2023-05-19T08:42:15.198Z,27.94
2023-05-19T08:43:15.357Z,27.62
2023-05-19T08:44:17.559Z,27.10
2023-05-19T08:45:15.487Z,27.59
2023-05-19T08:46:15.540Z,27.28
2023-05-19T08:47:15.622Z,27.15
2023-05-19T08:48:15.713Z,28.99
2023-05-19T08:49:15.793Z,30.31
2023-05-19T08:50:15.844Z,30.65
2023-05-19T08:51:15.943Z,30.15
2023-05-19T08:52:16.020Z,29.92
2023-05-19T08:53:31.823Z,30.00
2023-05-19T08:54:16.182Z,31.00
2023-05-19T08:55:16.279Z,30.32
2023-05-19T08:56:16.361Z,31.26
2023-05-19T08:57:16.445Z,31.06
2023-05-19T08:58:16.564Z,30.66
2023-05-19T08:59:16.617Z,30.85
2023-05-19T09:00:16.660Z,31.31
2023-05-19T09:01:17.029Z,31.07
2023-05-19T09:02:16.800Z,30.55
2023-05-19T09:03:22.778Z,30.35
2023-05-19T09:04:17.096Z,30.24
2023-05-19T09:05:17.062Z,29.05
2023-05-19T09:06:17.123Z,28.85
2023-05-19T09:07:17.203Z,28.34
2023-05-19T09:08:17.284Z,28.43
2023-05-19T09:09:17.358Z,29.34
2023-05-19T09:10:17.375Z,28.95
2023-05-19T09:11:17.496Z,29.25
2023-05-19T09:12:17.530Z,29.35
2023-05-19T09:13:17.660Z,29.02
2023-05-19T09:14:17.709Z,30.62
2023-05-19T09:15:17.807Z,31.10
2023-05-19T09:16:17.944Z,30.77
2023-05-19T09:17:17.938Z,30.04
2023-05-19T09:18:18.044Z,28.39
2023-05-19T09:19:18.165Z,29.48
2023-05-19T09:20:18.201Z,29.97
2023-05-19T09:21:18.268Z,29.99
2023-05-19T09:22:18.324Z,28.81
2023-05-19T09:23:18.451Z,29.00
2023-05-19T09:24:18.493Z,28.61
2023-05-19T09:25:18.592Z,28.68
2023-05-19T09:26:18.669Z,28.97
2023-05-19T09:27:18.767Z,28.68
2023-05-19T09:28:18.880Z,27.81
2023-05-19T09:29:18.945Z,28.41
2023-05-19T09:30:19.035Z,27.81
2023-05-19T09:31:19.088Z,28.49
2023-05-19T09:32:19.225Z,28.49
2023-05-19T09:33:19.298Z,29.07
2023-05-19T09:34:19.295Z,29.17
2023-05-19T09:35:19.371Z,28.16
2023-05-19T09:36:19.476Z,28.97
2023-05-19T09:37:19.546Z,29.55
2023-05-19T09:38:19.703Z,28.86
2023-05-19T09:39:19.723Z,28.30
2023-05-19T09:40:19.802Z,28.29
2023-05-19T09:41:19.867Z,28.81
2023-05-19T09:42:19.951Z,30.55
2023-05-19T09:43:20.051Z,30.86
2023-05-19T09:44:20.118Z,31.27
2023-05-19T09:45:20.191Z,32.59
2023-05-19T09:46:20.330Z,32.09
2023-05-19T09:47:20.340Z,33.21
2023-05-19T09:48:20.463Z,35.52
2023-05-19T09:49:20.522Z,34.52
2023-05-19T09:50:20.620Z,33.57
2023-05-19T09:51:20.700Z,31.46
2023-05-19T09:52:20.800Z,30.54
2023-05-19T09:53:20.902Z,30.11
2023-05-19T09:54:20.997Z,30.02
2023-05-19T09:55:21.053Z,29.89
2023-05-19T09:56:21.155Z,30.38
2023-05-19T09:57:21.240Z,29.66
2023-05-19T09:58:21.358Z,29.78
2023-05-19T09:59:21.428Z,28.77
2023-05-19T10:00:21.515Z,28.23
2023-05-19T10:01:21.630Z,27.75
2023-05-19T10:02:21.696Z,28.05
2023-05-19T10:03:21.785Z,27.95
2023-05-19T10:04:22.227Z,28.26
2023-05-19T10:05:21.990Z,28.80
2023-05-19T10:06:22.035Z,29.32
2023-05-19T10:07:22.131Z,30.00
2023-05-19T10:08:22.247Z,29.91
2023-05-19T10:09:22.285Z,29.51
2023-05-19T10:10:22.384Z,28.72
2023-05-19T10:11:22.470Z,28.91
2023-05-19T10:12:22.560Z,28.99
2023-05-19T10:13:22.675Z,28.09
2023-05-19T10:14:22.747Z,28.17
2023-05-19T10:15:23.446Z,28.70
2023-05-19T10:16:22.984Z,28.70
2023-05-19T10:17:23.007Z,29.51
2023-05-19T10:18:23.125Z,30.29
2023-05-19T10:19:23.220Z,31.38
2023-05-19T10:20:23.242Z,30.94
2023-05-19T10:21:23.292Z,33.45
2023-05-19T10:22:23.392Z,32.48
2023-05-19T10:23:23.512Z,30.98
2023-05-19T10:24:23.548Z,31.48
2023-05-19T10:25:23.628Z,32.48
2023-05-19T10:26:23.698Z,31.79
2023-05-19T10:27:23.784Z,32.70
2023-05-19T10:28:23.909Z,31.72
2023-05-19T10:29:23.956Z,33.11
2023-05-19T10:30:24.052Z,32.89
2023-05-19T10:31:24.139Z,34.50
2023-05-19T10:32:24.305Z,32.70
2023-05-19T10:33:24.534Z,31.49
2023-05-19T10:34:24.384Z,33.00
2023-05-19T10:35:24.478Z,33.11
2023-05-19T10:36:24.581Z,33.92
2023-05-19T10:37:24.648Z,33.92
2023-05-19T10:38:24.763Z,33.64
2023-05-19T10:39:24.816Z,35.38
2023-05-19T10:40:24.916Z,36.98
2023-05-19T10:41:24.983Z,36.58
2023-05-19T10:42:25.092Z,36.88
2023-05-19T10:43:25.155Z,36.57
2023-05-19T10:44:25.253Z,35.87
2023-05-19T10:45:25.303Z,36.77
2023-05-19T10:46:25.512Z,35.41
2023-05-19T10:47:25.549Z,35.72
2023-05-19T10:48:25.584Z,36.12
2023-05-19T10:49:25.660Z,35.63
2023-05-19T10:50:25.731Z,36.04
2023-05-19T10:51:25.818Z,36.35
2023-05-19T10:52:26.310Z,38.15
2023-05-19T10:53:25.986Z,37.75
2023-05-19T10:54:26.065Z,38.65
2023-05-19T10:55:26.132Z,37.37
2023-05-19T10:56:26.235Z,37.67
2023-05-19T10:57:26.284Z,37.98
2023-05-19T10:58:26.626Z,36.67
2023-05-19T10:59:27.867Z,36.27
2023-05-19T11:00:26.497Z,36.77
2023-05-19T11:01:26.615Z,36.67
2023-05-19T11:02:26.774Z,35.79
2023-05-19T11:03:26.775Z,36.39
2023-05-19T11:04:27.003Z,36.67
2023-05-19T11:05:26.910Z,37.67
2023-05-19T11:06:27.019Z,37.25
2023-05-19T11:07:27.086Z,37.15
2023-05-19T11:08:27.192Z,36.77
2023-05-19T11:09:37.956Z,36.89
2023-05-19T11:10:27.364Z,37.27
2023-05-19T11:11:27.453Z,35.71
2023-05-19T11:12:27.536Z,36.51
2023-05-19T11:14:27.727Z,37.23
2023-05-19T11:15:27.828Z,37.42
2023-05-19T11:16:27.960Z,38.70
2023-05-19T11:17:28.000Z,40.72
2023-05-19T11:18:28.068Z,41.22
2023-05-19T11:19:28.254Z,40.59
2023-05-19T11:20:28.213Z,39.78
2023-05-19T11:21:28.383Z,37.37
2023-05-19T11:22:28.415Z,37.97
2023-05-19T11:23:28.497Z,37.57
2023-05-19T11:24:28.578Z,36.95
2023-05-19T11:25:28.632Z,38.23
2023-05-19T11:26:28.736Z,37.53
2023-05-19T11:27:28.825Z,36.62
2023-05-19T11:28:28.942Z,37.23
2023-05-19T11:29:28.987Z,37.75
2023-05-19T11:30:29.090Z,37.65
2023-05-19T11:31:29.176Z,36.37
2023-05-19T11:32:29.328Z,37.37
2023-05-19T11:33:29.375Z,38.39
2023-05-19T11:34:29.418Z,36.51
2023-05-19T11:35:29.530Z,36.11
2023-05-19T11:36:29.581Z,37.10
2023-05-19T11:37:29.681Z,37.49
2023-05-19T11:38:29.785Z,37.49
2023-05-19T11:39:29.856Z,36.79
2023-05-19T11:40:29.940Z,36.91
2023-05-19T11:41:30.019Z,37.21
2023-05-19T11:42:30.110Z,38.80
2023-05-19T11:43:30.218Z,38.70
2023-05-19T11:44:30.273Z,38.89
2023-05-19T11:45:30.432Z,38.48
2023-05-19T11:46:30.497Z,37.08
2023-05-19T11:47:32.015Z,37.49
2023-05-19T11:48:30.748Z,38.78
2023-05-19T11:49:30.691Z,37.51
2023-05-19T11:50:30.783Z,37.74
2023-05-19T11:51:30.847Z,38.16
2023-05-19T11:52:30.944Z,39.37
2023-05-19T11:54:31.096Z,40.28
2023-05-19T11:55:31.187Z,40.39
2023-05-19T11:56:31.259Z,39.37
2023-05-19T11:57:31.328Z,39.79
2023-05-19T11:58:31.443Z,39.00
2023-05-19T11:59:32.784Z,39.22
2023-05-19T12:00:31.558Z,40.41
2023-05-19T12:01:31.650Z,38.91
2023-05-19T12:02:31.837Z,38.29
2023-05-19T12:03:31.885Z,38.13
2023-05-19T12:04:31.967Z,39.65
2023-05-19T12:05:34.483Z,39.55
2023-05-19T12:06:32.145Z,39.85
2023-05-19T12:07:32.126Z,40.55
2023-05-19T12:08:32.305Z,40.25
2023-05-19T12:09:32.286Z,39.83
2023-05-19T12:10:32.382Z,42.03
2023-05-19T12:11:32.446Z,40.45
2023-05-19T12:12:32.542Z,40.27
2023-05-19T12:13:32.636Z,40.37
2023-05-19T12:14:32.700Z,40.87
2023-05-19T12:15:32.935Z,41.55
2023-05-19T12:16:33.615Z,41.43
2023-05-19T12:17:32.929Z,40.11
2023-05-19T12:18:32.988Z,39.50
2023-05-19T12:19:33.079Z,39.00
2023-05-19T12:20:33.130Z,39.20
2023-05-19T12:21:33.643Z,38.68
2023-05-19T12:22:33.313Z,38.57
2023-05-19T12:23:33.426Z,38.38
2023-05-19T12:24:33.485Z,39.79
2023-05-19T12:25:33.889Z,38.89
2023-05-19T12:26:33.635Z,38.31
2023-05-19T12:27:34.839Z,38.81
2023-05-19T12:28:33.829Z,39.91
2023-05-19T12:29:33.894Z,40.81
2023-05-19T12:30:34.934Z,39.79
2023-05-19T12:31:34.134Z,38.98
2023-05-19T12:32:34.177Z,38.78
2023-05-19T12:33:35.665Z,38.68
2023-05-19T12:34:34.274Z,38.78
2023-05-19T12:35:34.430Z,39.29
2023-05-19T12:36:34.418Z,39.20
2023-05-19T12:37:34.474Z,39.61
2023-05-19T12:38:34.582Z,40.91
2023-05-19T12:39:34.648Z,39.72
2023-05-19T12:40:35.096Z,39.53
2023-05-19T12:41:34.767Z,39.73
2023-05-19T12:42:34.866Z,39.11
2023-05-19T12:43:34.955Z,39.61
2023-05-19T12:44:35.010Z,40.22
2023-05-19T12:45:35.123Z,38.01
2023-05-19T12:46:35.169Z,38.63
2023-05-19T12:47:35.274Z,38.83
2023-05-19T12:48:35.343Z,39.73
2023-05-19T12:49:35.405Z,38.83
2023-05-19T12:50:35.809Z,40.23
2023-05-19T12:51:35.539Z,39.72
2023-05-19T12:52:35.644Z,38.61
2023-05-19T12:53:35.704Z,37.92
2023-05-19T12:54:35.872Z,38.31
2023-05-19T12:55:35.857Z,37.41